sensor_id;sensor_type;location;lat;lon;timestamp;pressure;altitude;pressure_sealevel;temperature;humidity
60089;BME280;45961;53.574;55.878;2022-09-29T00:00:12;100309.72;;;4.56;92.77
60089;BME280;45961;53.574;55.878;2022-09-29T00:01:14;100316.03;;;4.66;92.72
60089;BME280;45961;53.574;55.878;2022-09-29T00:02:15;100297.19;;;4.64;92.90
60089;BME280;45961;53.574;55.878;2022-09-29T00:03:16;100298.09;;;4.66;92.91
60089;BME280;45961;53.574;55.878;2022-09-29T00:04:17;100292.88;;;4.63;92.63
60089;BME280;45961;53.574;55.878;2022-09-29T00:05:20;100303.56;;;4.75;92.75
60089;BME280;45961;53.574;55.878;2022-09-29T00:06:21;100304.31;;;4.73;92.73
60089;BME280;45961;53.574;55.878;2022-09-29T00:07:22;100298.47;;;4.77;92.74
60089;BME280;45961;53.574;55.878;2022-09-29T00:08:26;100302.91;;;4.82;92.64
60089;BME280;45961;53.574;55.878;2022-09-29T00:09:27;100299.81;;;4.91;92.64
60089;BME280;45961;53.574;55.878;2022-09-29T00:10:28;100301.31;;;4.86;92.40
60089;BME280;45961;53.574;55.878;2022-09-29T00:11:29;100298.75;;;4.86;92.42
60089;BME280;45961;53.574;55.878;2022-09-29T00:12:30;100298.03;;;4.90;92.32
60089;BME280;45961;53.574;55.878;2022-09-29T00:13:31;100303.13;;;4.88;92.43
60089;BME280;45961;53.574;55.878;2022-09-29T00:14:32;100300.34;;;4.82;92.33
60089;BME280;45961;53.574;55.878;2022-09-29T00:15:33;100300.28;;;4.79;92.34
60089;BME280;45961;53.574;55.878;2022-09-29T00:16:34;100292.50;;;4.78;92.42
60089;BME280;45961;53.574;55.878;2022-09-29T00:17:35;100293.56;;;4.83;92.59
60089;BME280;45961;53.574;55.878;2022-09-29T00:18:36;100299.63;;;4.86;92.52
60089;BME280;45961;53.574;55.878;2022-09-29T00:19:37;100296.19;;;4.86;92.65
60089;BME280;45961;53.574;55.878;2022-09-29T00:20:38;100289.19;;;4.80;92.58
60089;BME280;45961;53.574;55.878;2022-09-29T00:21:39;100299.75;;;4.89;92.63
60089;BME280;45961;53.574;55.878;2022-09-29T00:22:40;100296.44;;;4.93;92.50
60089;BME280;45961;53.574;55.878;2022-09-29T00:23:41;100285.31;;;4.93;92.19
60089;BME280;45961;53.574;55.878;2022-09-29T00:24:42;100291.19;;;4.89;91.99
60089;BME280;45961;53.574;55.878;2022-09-29T00:25:43;100287.59;;;4.84;91.99
60089;BME280;45961;53.574;55.878;2022-09-29T00:26:44;100288.59;;;4.89;92.03
60089;BME280;45961;53.574;55.878;2022-09-29T00:27:47;100283.47;;;4.89;92.16
60089;BME280;45961;53.574;55.878;2022-09-29T00:28:53;100278.97;;;4.82;92.26
60089;BME280;45961;53.574;55.878;2022-09-29T00:29:57;100277.91;;;4.75;92.16
60089;BME280;45961;53.574;55.878;2022-09-29T00:30:59;100278.09;;;4.81;92.29
60089;BME280;45961;53.574;55.878;2022-09-29T00:32:01;100281.88;;;4.92;92.13
60089;BME280;45961;53.574;55.878;2022-09-29T00:33:02;100274.06;;;4.88;92.02
60089;BME280;45961;53.574;55.878;2022-09-29T00:34:03;100278.63;;;4.98;91.86
60089;BME280;45961;53.574;55.878;2022-09-29T00:35:04;100276.53;;;4.86;92.00
60089;BME280;45961;53.574;55.878;2022-09-29T00:36:13;100278.34;;;4.89;91.95
60089;BME280;45961;53.574;55.878;2022-09-29T00:37:14;100269.94;;;4.93;91.88
60089;BME280;45961;53.574;55.878;2022-09-29T00:38:15;100281.13;;;4.95;91.81
60089;BME280;45961;53.574;55.878;2022-09-29T00:39:16;100275.75;;;4.87;92.11
60089;BME280;45961;53.574;55.878;2022-09-29T00:40:17;100272.25;;;4.85;92.16
60089;BME280;45961;53.574;55.878;2022-09-29T00:41:21;100276.53;;;4.86;92.11
60089;BME280;45961;53.574;55.878;2022-09-29T00:42:24;100282.16;;;4.75;92.41
60089;BME280;45961;53.574;55.878;2022-09-29T00:43:49;100278.88;;;4.79;92.52
60089;BME280;45961;53.574;55.878;2022-09-29T00:45:19;100273.06;;;4.84;92.70
60089;BME280;45961;53.574;55.878;2022-09-29T00:47:25;100266.41;;;4.64;92.75
60089;BME280;45961;53.574;55.878;2022-09-29T00:48:30;100271.59;;;4.65;92.66
60089;BME280;45961;53.574;55.878;2022-09-29T00:49:51;100268.38;;;4.71;92.78
60089;BME280;45961;53.574;55.878;2022-09-29T00:50:55;100272.66;;;4.72;92.71
60089;BME280;45961;53.574;55.878;2022-09-29T00:52:02;100272.56;;;4.69;92.96
60089;BME280;45961;53.574;55.878;2022-09-29T00:53:04;100264.16;;;4.73;92.86
60089;BME280;45961;53.574;55.878;2022-09-29T00:54:11;100266.25;;;4.85;92.90
60089;BME280;45961;53.574;55.878;2022-09-29T00:55:18;100265.50;;;4.87;92.61
60089;BME280;45961;53.574;55.878;2022-09-29T00:56:20;100271.41;;;4.86;92.57
60089;BME280;45961;53.574;55.878;2022-09-29T00:57:25;100270.72;;;4.90;92.41
60089;BME280;45961;53.574;55.878;2022-09-29T00:58:34;100269.38;;;4.76;92.21
60089;BME280;45961;53.574;55.878;2022-09-29T01:00:02;100266.78;;;4.75;92.33
60089;BME280;45961;53.574;55.878;2022-09-29T01:01:05;100275.41;;;4.78;92.25
60089;BME280;45961;53.574;55.878;2022-09-29T01:02:06;100265.13;;;4.77;92.34
60089;BME280;45961;53.574;55.878;2022-09-29T01:03:15;100272.97;;;4.81;92.50
60089;BME280;45961;53.574;55.878;2022-09-29T01:04:18;100274.22;;;4.67;92.43
60089;BME280;45961;53.574;55.878;2022-09-29T01:05:26;100257.25;;;4.70;92.71
60089;BME280;45961;53.574;55.878;2022-09-29T01:06:50;100262.59;;;4.78;92.56
60089;BME280;45961;53.574;55.878;2022-09-29T01:07:52;100265.66;;;4.66;92.45
60089;BME280;45961;53.574;55.878;2022-09-29T01:09:03;100264.69;;;4.63;92.56
60089;BME280;45961;53.574;55.878;2022-09-29T01:10:06;100259.16;;;4.51;92.59
60089;BME280;45961;53.574;55.878;2022-09-29T01:11:10;100266.97;;;4.55;92.98
60089;BME280;45961;53.574;55.878;2022-09-29T01:12:12;100264.75;;;4.66;92.78
60089;BME280;45961;53.574;55.878;2022-09-29T01:13:13;100262.91;;;4.62;92.94
60089;BME280;45961;53.574;55.878;2022-09-29T01:14:14;100257.97;;;4.66;92.96
60089;BME280;45961;53.574;55.878;2022-09-29T01:15:18;100260.81;;;4.76;93.02
60089;BME280;45961;53.574;55.878;2022-09-29T01:16:19;100258.03;;;4.69;92.84
60089;BME280;45961;53.574;55.878;2022-09-29T01:17:21;100254.63;;;4.69;92.87
60089;BME280;45961;53.574;55.878;2022-09-29T01:18:23;100251.06;;;4.65;92.66
60089;BME280;45961;53.574;55.878;2022-09-29T01:21:25;100264.59;;;4.61;92.74
60089;BME280;45961;53.574;55.878;2022-09-29T01:31:39;100262.38;;;4.70;93.03
60089;BME280;45961;53.574;55.878;2022-09-29T01:43:30;100262.59;;;4.78;92.43
60089;BME280;45961;53.574;55.878;2022-09-29T01:44:38;100260.97;;;4.80;92.38
60089;BME280;45961;53.574;55.878;2022-09-29T01:45:48;100260.00;;;4.77;92.50
60089;BME280;45961;53.574;55.878;2022-09-29T01:47:12;100252.13;;;4.70;92.65
60089;BME280;45961;53.574;55.878;2022-09-29T01:48:21;100249.56;;;4.70;92.76
60089;BME280;45961;53.574;55.878;2022-09-29T01:49:29;100250.31;;;4.68;92.91
60089;BME280;45961;53.574;55.878;2022-09-29T01:50:39;100249.56;;;4.70;92.81
60089;BME280;45961;53.574;55.878;2022-09-29T01:51:54;100248.88;;;4.76;92.82
60089;BME280;45961;53.574;55.878;2022-09-29T01:53:03;100246.88;;;4.67;92.82
60089;BME280;45961;53.574;55.878;2022-09-29T01:54:13;100245.06;;;4.65;92.99
60089;BME280;45961;53.574;55.878;2022-09-29T01:55:18;100252.06;;;4.69;93.08
60089;BME280;45961;53.574;55.878;2022-09-29T01:56:47;100240.94;;;4.68;92.92
60089;BME280;45961;53.574;55.878;2022-09-29T01:57:57;100237.47;;;4.66;92.88
60089;BME280;45961;53.574;55.878;2022-09-29T01:59:22;100243.63;;;4.73;93.12
60089;BME280;45961;53.574;55.878;2022-09-29T02:00:25;100248.63;;;4.68;93.03
60089;BME280;45961;53.574;55.878;2022-09-29T02:01:33;100232.25;;;4.65;93.01
60089;BME280;45961;53.574;55.878;2022-09-29T02:04:06;100246.09;;;4.70;93.23
60089;BME280;45961;53.574;55.878;2022-09-29T02:05:13;100251.19;;;4.68;93.12
60089;BME280;45961;53.574;55.878;2022-09-29T02:06:42;100241.69;;;4.66;93.03
60089;BME280;45961;53.574;55.878;2022-09-29T02:07:45;100236.81;;;4.74;93.07
60089;BME280;45961;53.574;55.878;2022-09-29T02:08:52;100236.72;;;4.70;93.05
60089;BME280;45961;53.574;55.878;2022-09-29T02:10:00;100239.38;;;4.74;92.95
60089;BME280;45961;53.574;55.878;2022-09-29T02:11:09;100242.63;;;4.68;93.14
60089;BME280;45961;53.574;55.878;2022-09-29T02:12:15;100253.31;;;4.82;93.00
60089;BME280;45961;53.574;55.878;2022-09-29T02:13:18;100214.41;;;4.68;92.90
60089;BME280;45961;53.574;55.878;2022-09-29T02:14:24;100245.28;;;4.71;92.83
60089;BME280;45961;53.574;55.878;2022-09-29T02:15:31;100247.19;;;4.77;92.72
60089;BME280;45961;53.574;55.878;2022-09-29T02:16:38;100244.88;;;4.84;92.77
60089;BME280;45961;53.574;55.878;2022-09-29T02:17:44;100247.13;;;4.75;92.82
60089;BME280;45961;53.574;55.878;2022-09-29T02:18:52;100246.09;;;4.70;92.77
60089;BME280;45961;53.574;55.878;2022-09-29T02:19:53;100245.47;;;4.77;92.90
60089;BME280;45961;53.574;55.878;2022-09-29T02:20:54;100249.06;;;4.82;92.92
60089;BME280;45961;53.574;55.878;2022-09-29T02:21:55;100241.44;;;4.84;92.86
60089;BME280;45961;53.574;55.878;2022-09-29T02:22:57;100240.81;;;4.91;92.78
60089;BME280;45961;53.574;55.878;2022-09-29T02:23:59;100245.78;;;4.86;92.66
60089;BME280;45961;53.574;55.878;2022-09-29T02:24:59;100247.78;;;4.95;92.67
60089;BME280;45961;53.574;55.878;2022-09-29T02:26:01;100238.16;;;4.88;92.60
60089;BME280;45961;53.574;55.878;2022-09-29T02:28:23;100248.41;;;4.88;92.44
60089;BME280;45961;53.574;55.878;2022-09-29T02:29:25;100249.31;;;4.90;92.54
60089;BME280;45961;53.574;55.878;2022-09-29T02:30:27;100254.41;;;4.88;92.54
60089;BME280;45961;53.574;55.878;2022-09-29T02:31:29;100232.41;;;4.95;92.57
60089;BME280;45961;53.574;55.878;2022-09-29T02:32:32;100243.44;;;4.94;92.16
60089;BME280;45961;53.574;55.878;2022-09-29T02:33:35;100247.44;;;4.84;92.20
60089;BME280;45961;53.574;55.878;2022-09-29T02:34:38;100238.06;;;4.86;92.03
60089;BME280;45961;53.574;55.878;2022-09-29T02:36:12;100239.97;;;4.92;92.05
60089;BME280;45961;53.574;55.878;2022-09-29T02:37:32;100238.44;;;4.97;91.92
60089;BME280;45961;53.574;55.878;2022-09-29T02:40:52;100245.06;;;4.90;92.23
60089;BME280;45961;53.574;55.878;2022-09-29T02:42:15;100239.88;;;4.89;92.25
60089;BME280;45961;53.574;55.878;2022-09-29T02:51:45;100243.38;;;4.91;92.24
60089;BME280;45961;53.574;55.878;2022-09-29T02:55:06;100231.47;;;4.93;92.22
60089;BME280;45961;53.574;55.878;2022-09-29T02:56:28;100244.56;;;5.02;92.23
60089;BME280;45961;53.574;55.878;2022-09-29T02:57:57;100238.78;;;5.08;92.21
60089;BME280;45961;53.574;55.878;2022-09-29T02:59:13;100239.38;;;4.99;92.12
60089;BME280;45961;53.574;55.878;2022-09-29T03:00:17;100242.78;;;5.00;92.41
60089;BME280;45961;53.574;55.878;2022-09-29T03:01:19;100231.66;;;4.99;92.47
60089;BME280;45961;53.574;55.878;2022-09-29T03:02:24;100242.31;;;5.11;92.37
60089;BME280;45961;53.574;55.878;2022-09-29T03:03:25;100226.78;;;5.07;92.09
60089;BME280;45961;53.574;55.878;2022-09-29T03:04:26;100236.50;;;5.17;91.91
60089;BME280;45961;53.574;55.878;2022-09-29T03:05:28;100235.59;;;5.15;91.91
60089;BME280;45961;53.574;55.878;2022-09-29T03:06:29;100238.28;;;5.19;91.99
60089;BME280;45961;53.574;55.878;2022-09-29T03:07:30;100236.09;;;5.32;91.68
60089;BME280;45961;53.574;55.878;2022-09-29T03:08:31;100244.44;;;5.25;91.54
60089;BME280;45961;53.574;55.878;2022-09-29T03:09:32;100237.72;;;5.30;91.38
60089;BME280;45961;53.574;55.878;2022-09-29T03:10:33;100234.06;;;5.22;91.34
60089;BME280;45961;53.574;55.878;2022-09-29T03:11:35;100241.09;;;5.27;91.51
60089;BME280;45961;53.574;55.878;2022-09-29T03:12:36;100229.41;;;5.37;91.23
60089;BME280;45961;53.574;55.878;2022-09-29T03:13:37;100234.44;;;5.34;91.09
60089;BME280;45961;53.574;55.878;2022-09-29T03:14:38;100231.00;;;5.33;91.25
60089;BME280;45961;53.574;55.878;2022-09-29T03:15:39;100231.06;;;5.35;90.92
60089;BME280;45961;53.574;55.878;2022-09-29T03:16:40;100225.03;;;5.34;90.97
60089;BME280;45961;53.574;55.878;2022-09-29T03:17:42;100230.13;;;5.33;91.02
60089;BME280;45961;53.574;55.878;2022-09-29T03:18:46;100236.09;;;5.32;90.96
60089;BME280;45961;53.574;55.878;2022-09-29T03:19:47;100236.13;;;5.33;91.14
60089;BME280;45961;53.574;55.878;2022-09-29T03:20:48;100243.19;;;5.40;91.09
60089;BME280;45961;53.574;55.878;2022-09-29T03:21:49;100231.00;;;5.33;91.23
60089;BME280;45961;53.574;55.878;2022-09-29T03:22:56;100234.19;;;5.26;91.12
60089;BME280;45961;53.574;55.878;2022-09-29T03:23:57;100235.03;;;5.25;91.17
60089;BME280;45961;53.574;55.878;2022-09-29T03:24:58;100240.00;;;5.19;91.13
60089;BME280;45961;53.574;55.878;2022-09-29T03:25:59;100238.22;;;5.18;91.35
60089;BME280;45961;53.574;55.878;2022-09-29T03:27:00;100232.69;;;5.33;91.42
60089;BME280;45961;53.574;55.878;2022-09-29T03:28:01;100232.09;;;5.41;91.32
60089;BME280;45961;53.574;55.878;2022-09-29T03:29:02;100238.44;;;5.24;91.21
60089;BME280;45961;53.574;55.878;2022-09-29T03:30:04;100232.38;;;5.22;91.55
60089;BME280;45961;53.574;55.878;2022-09-29T03:31:06;100234.94;;;5.22;91.21
60089;BME280;45961;53.574;55.878;2022-09-29T03:32:09;100235.84;;;5.24;91.21
60089;BME280;45961;53.574;55.878;2022-09-29T03:33:10;100236.59;;;5.20;91.41
60089;BME280;45961;53.574;55.878;2022-09-29T03:34:11;100233.25;;;5.23;91.44
60089;BME280;45961;53.574;55.878;2022-09-29T03:35:12;100229.75;;;5.20;91.41
60089;BME280;45961;53.574;55.878;2022-09-29T03:36:13;100234.78;;;5.17;91.48
60089;BME280;45961;53.574;55.878;2022-09-29T03:37:14;100238.66;;;5.32;91.51
60089;BME280;45961;53.574;55.878;2022-09-29T03:38:15;100227.28;;;5.24;91.32
60089;BME280;45961;53.574;55.878;2022-09-29T03:39:16;100230.72;;;5.24;91.35
60089;BME280;45961;53.574;55.878;2022-09-29T03:40:17;100224.16;;;5.34;91.44
60089;BME280;45961;53.574;55.878;2022-09-29T03:41:18;100224.13;;;5.32;91.55
60089;BME280;45961;53.574;55.878;2022-09-29T03:42:39;100223.13;;;5.27;91.41
60089;BME280;45961;53.574;55.878;2022-09-29T03:43:40;100217.06;;;5.25;91.33
60089;BME280;45961;53.574;55.878;2022-09-29T03:44:41;100221.28;;;5.23;91.44
60089;BME280;45961;53.574;55.878;2022-09-29T03:45:50;100219.63;;;5.25;91.26
60089;BME280;45961;53.574;55.878;2022-09-29T03:46:51;100224.50;;;5.44;91.30
60089;BME280;45961;53.574;55.878;2022-09-29T03:47:52;100224.50;;;5.44;91.22
60089;BME280;45961;53.574;55.878;2022-09-29T03:48:53;100228.13;;;5.51;91.15
60089;BME280;45961;53.574;55.878;2022-09-29T03:49:54;100228.91;;;5.49;91.19
60089;BME280;45961;53.574;55.878;2022-09-29T03:50:55;100226.38;;;5.50;91.34
60089;BME280;45961;53.574;55.878;2022-09-29T03:51:56;100222.16;;;5.52;91.23
60089;BME280;45961;53.574;55.878;2022-09-29T03:52:57;100225.84;;;5.62;91.05
60089;BME280;45961;53.574;55.878;2022-09-29T03:53:58;100209.22;;;5.49;91.15
60089;BME280;45961;53.574;55.878;2022-09-29T03:54:59;100226.13;;;5.42;91.01
60089;BME280;45961;53.574;55.878;2022-09-29T03:56:01;100227.31;;;5.54;91.21
60089;BME280;45961;53.574;55.878;2022-09-29T03:57:02;100222.91;;;5.48;91.06
60089;BME280;45961;53.574;55.878;2022-09-29T03:58:03;100221.91;;;5.43;91.19
60089;BME280;45961;53.574;55.878;2022-09-29T03:59:05;100221.00;;;5.42;91.16
60089;BME280;45961;53.574;55.878;2022-09-29T04:00:09;100218.53;;;5.45;91.26
60089;BME280;45961;53.574;55.878;2022-09-29T04:01:10;100220.34;;;5.50;91.29
60089;BME280;45961;53.574;55.878;2022-09-29T04:02:12;100216.94;;;5.49;91.38
60089;BME280;45961;53.574;55.878;2022-09-29T04:03:13;100220.84;;;5.36;91.54
60089;BME280;45961;53.574;55.878;2022-09-29T04:04:14;100216.53;;;5.35;91.74
60089;BME280;45961;53.574;55.878;2022-09-29T04:05:15;100225.13;;;5.37;91.63
60089;BME280;45961;53.574;55.878;2022-09-29T04:06:18;100223.41;;;5.36;91.62
60089;BME280;45961;53.574;55.878;2022-09-29T04:07:18;100225.13;;;5.37;91.78
60089;BME280;45961;53.574;55.878;2022-09-29T04:08:19;100237.22;;;5.41;91.64
60089;BME280;45961;53.574;55.878;2022-09-29T04:09:20;100226.31;;;5.49;91.61
60089;BME280;45961;53.574;55.878;2022-09-29T04:10:22;100219.25;;;5.41;91.49
60089;BME280;45961;53.574;55.878;2022-09-29T04:11:23;100220.09;;;5.40;91.64
60089;BME280;45961;53.574;55.878;2022-09-29T04:12:24;100219.25;;;5.41;91.63
60089;BME280;45961;53.574;55.878;2022-09-29T04:13:25;100224.28;;;5.38;91.48
60089;BME280;45961;53.574;55.878;2022-09-29T04:14:26;100214.94;;;5.39;91.34
60089;BME280;45961;53.574;55.878;2022-09-29T04:15:27;100215.88;;;5.42;91.26
60089;BME280;45961;53.574;55.878;2022-09-29T04:16:28;100227.53;;;5.31;91.49
60089;BME280;45961;53.574;55.878;2022-09-29T04:17:29;100222.41;;;5.31;91.64
60089;BME280;45961;53.574;55.878;2022-09-29T04:18:30;100225.03;;;5.34;91.84
60089;BME280;45961;53.574;55.878;2022-09-29T04:19:32;100222.75;;;5.43;91.71
60089;BME280;45961;53.574;55.878;2022-09-29T04:20:36;100225.50;;;5.50;91.69
60089;BME280;45961;53.574;55.878;2022-09-29T04:21:37;100221.16;;;5.47;91.71
60089;BME280;45961;53.574;55.878;2022-09-29T04:22:38;100223.56;;;5.42;91.62
60089;BME280;45961;53.574;55.878;2022-09-29T04:23:39;100222.56;;;5.37;91.54
60089;BME280;45961;53.574;55.878;2022-09-29T04:24:41;100217.50;;;5.39;91.29
60089;BME280;45961;53.574;55.878;2022-09-29T04:25:43;100215.50;;;5.30;91.10
60089;BME280;45961;53.574;55.878;2022-09-29T04:26:45;100220.69;;;5.32;91.05
60089;BME280;45961;53.574;55.878;2022-09-29T04:27:46;100216.53;;;5.35;91.15
60089;BME280;45961;53.574;55.878;2022-09-29T04:28:47;100218.38;;;5.39;91.05
60089;BME280;45961;53.574;55.878;2022-09-29T04:29:48;100219.22;;;5.40;91.08
60089;BME280;45961;53.574;55.878;2022-09-29T04:30:49;100220.63;;;5.30;91.06
60089;BME280;45961;53.574;55.878;2022-09-29T04:31:50;100224.66;;;5.22;90.94
60089;BME280;45961;53.574;55.878;2022-09-29T04:32:51;100220.59;;;5.29;91.00
60089;BME280;45961;53.574;55.878;2022-09-29T04:33:52;100222.41;;;5.31;91.07
60089;BME280;45961;53.574;55.878;2022-09-29T04:34:54;100224.28;;;5.38;91.07
60089;BME280;45961;53.574;55.878;2022-09-29T04:35:56;100224.22;;;5.35;90.97
60089;BME280;45961;53.574;55.878;2022-09-29T04:36:59;100213.34;;;5.15;90.91
60089;BME280;45961;53.574;55.878;2022-09-29T04:38:00;100218.38;;;5.12;90.87
60089;BME280;45961;53.574;55.878;2022-09-29T04:39:01;100231.38;;;5.18;91.02
60089;BME280;45961;53.574;55.878;2022-09-29T04:40:04;100221.81;;;5.13;91.00
60089;BME280;45961;53.574;55.878;2022-09-29T04:41:05;100224.63;;;5.20;90.97
60089;BME280;45961;53.574;55.878;2022-09-29T04:42:06;100229.16;;;5.29;90.87
60089;BME280;45961;53.574;55.878;2022-09-29T04:43:08;100227.88;;;5.15;90.95
60089;BME280;45961;53.574;55.878;2022-09-29T04:44:09;100227.34;;;5.25;90.93
60089;BME280;45961;53.574;55.878;2022-09-29T04:45:10;100226.69;;;5.32;91.13
60089;BME280;45961;53.574;55.878;2022-09-29T04:46:12;100235.22;;;5.31;90.92
60089;BME280;45961;53.574;55.878;2022-09-29T04:47:14;100230.25;;;5.37;90.82
60089;BME280;45961;53.574;55.878;2022-09-29T04:48:18;100219.69;;;5.27;90.68
60089;BME280;45961;53.574;55.878;2022-09-29T04:49:19;100220.84;;;5.36;90.71
60089;BME280;45961;53.574;55.878;2022-09-29T04:50:20;100203.09;;;5.44;90.59
60089;BME280;45961;53.574;55.878;2022-09-29T04:51:22;100222.09;;;5.51;90.37
60089;BME280;45961;53.574;55.878;2022-09-29T04:52:23;100220.25;;;5.47;90.38
60089;BME280;45961;53.574;55.878;2022-09-29T04:53:24;100223.50;;;5.39;90.30
60089;BME280;45961;53.574;55.878;2022-09-29T04:54:29;100226.31;;;5.49;90.29
60089;BME280;45961;53.574;55.878;2022-09-29T04:55:30;100211.66;;;5.44;90.25
60089;BME280;45961;53.574;55.878;2022-09-29T04:56:31;100224.66;;;5.51;90.33
60089;BME280;45961;53.574;55.878;2022-09-29T04:57:32;100222.19;;;5.54;90.22
60089;BME280;45961;53.574;55.878;2022-09-29T04:58:34;100224.81;;;5.55;90.56
60089;BME280;45961;53.574;55.878;2022-09-29T04:59:35;100220.88;;;5.38;90.33
60089;BME280;45961;53.574;55.878;2022-09-29T05:00:36;100222.66;;;5.40;90.53
60089;BME280;45961;53.574;55.878;2022-09-29T05:01:37;100215.06;;;5.43;90.80
60089;BME280;45961;53.574;55.878;2022-09-29T05:02:38;100217.84;;;5.51;90.73
60089;BME280;45961;53.574;55.878;2022-09-29T05:03:40;100217.91;;;5.54;90.71
60089;BME280;45961;53.574;55.878;2022-09-29T05:04:41;100209.31;;;5.52;90.56
60089;BME280;45961;53.574;55.878;2022-09-29T05:05:42;100222.28;;;5.57;90.43
60089;BME280;45961;53.574;55.878;2022-09-29T05:06:43;100223.94;;;5.55;90.53
60089;BME280;45961;53.574;55.878;2022-09-29T05:07:44;100220.47;;;5.53;90.79
60089;BME280;45961;53.574;55.878;2022-09-29T05:08:50;100220.47;;;5.53;90.84
60089;BME280;45961;53.574;55.878;2022-09-29T05:09:51;100222.06;;;5.49;90.74
60089;BME280;45961;53.574;55.878;2022-09-29T05:10:52;100223.75;;;5.49;90.70
60089;BME280;45961;53.574;55.878;2022-09-29T05:11:53;100215.88;;;5.42;90.81
60089;BME280;45961;53.574;55.878;2022-09-29T05:12:54;100217.84;;;5.51;90.83
60089;BME280;45961;53.574;55.878;2022-09-29T05:13:56;100218.75;;;5.53;90.96
60089;BME280;45961;53.574;55.878;2022-09-29T05:14:57;100216.97;;;5.51;90.72
60089;BME280;45961;53.574;55.878;2022-09-29T05:15:58;100218.72;;;5.52;90.67
60089;BME280;45961;53.574;55.878;2022-09-29T05:16:59;100222.94;;;5.50;90.96
60089;BME280;45961;53.574;55.878;2022-09-29T05:18:03;100211.75;;;5.48;90.84
60089;BME280;45961;53.574;55.878;2022-09-29T05:19:04;100219.47;;;5.48;90.94
60089;BME280;45961;53.574;55.878;2022-09-29T05:20:05;100216.19;;;5.53;91.10
60089;BME280;45961;53.574;55.878;2022-09-29T05:21:14;100217.25;;;5.60;91.18
60089;BME280;45961;53.574;55.878;2022-09-29T05:22:16;100221.22;;;5.50;91.13
60089;BME280;45961;53.574;55.878;2022-09-29T05:23:20;100215.88;;;5.42;90.96
60089;BME280;45961;53.574;55.878;2022-09-29T05:24:22;100215.22;;;5.50;91.18
60089;BME280;45961;53.574;55.878;2022-09-29T05:25:23;100226.19;;;5.44;91.03
60089;BME280;45961;53.574;55.878;2022-09-29T05:26:25;100223.63;;;5.44;91.14
60089;BME280;45961;53.574;55.878;2022-09-29T05:27:25;100223.56;;;5.42;91.15
60089;BME280;45961;53.574;55.878;2022-09-29T05:28:26;100219.22;;;5.40;90.91
60089;BME280;45961;53.574;55.878;2022-09-29T05:29:27;100209.78;;;5.39;90.81
60089;BME280;45961;53.574;55.878;2022-09-29T05:30:28;100217.50;;;5.39;91.07
60089;BME280;45961;53.574;55.878;2022-09-29T05:31:29;100211.31;;;5.32;91.06
60089;BME280;45961;53.574;55.878;2022-09-29T05:32:33;100214.75;;;5.34;91.13
60089;BME280;45961;53.574;55.878;2022-09-29T05:33:35;100215.22;;;5.50;91.10
60089;BME280;45961;53.574;55.878;2022-09-29T05:34:38;100214.25;;;5.46;91.02
60089;BME280;45961;53.574;55.878;2022-09-29T05:35:39;100216.03;;;5.47;90.92
60089;BME280;45961;53.574;55.878;2022-09-29T05:36:40;100216.78;;;5.44;91.06
60089;BME280;45961;53.574;55.878;2022-09-29T05:37:41;100212.38;;;5.39;90.79
60089;BME280;45961;53.574;55.878;2022-09-29T05:38:41;100226.78;;;5.35;90.82
60089;BME280;45961;53.574;55.878;2022-09-29T05:39:42;100225.25;;;5.42;90.92
60089;BME280;45961;53.574;55.878;2022-09-29T05:40:45;100221.72;;;5.38;90.82
60089;BME280;45961;53.574;55.878;2022-09-29T05:41:48;100219.16;;;5.38;90.81
60089;BME280;45961;53.574;55.878;2022-09-29T05:42:52;100224.25;;;5.37;91.12
60089;BME280;45961;53.574;55.878;2022-09-29T05:43:54;100223.56;;;5.42;91.28
60089;BME280;45961;53.574;55.878;2022-09-29T05:44:55;100219.69;;;5.27;91.29
60089;BME280;45961;53.574;55.878;2022-09-29T05:46:00;100219.53;;;5.22;91.32
60089;BME280;45961;53.574;55.878;2022-09-29T05:47:01;100203.16;;;5.18;91.14
60089;BME280;45961;53.574;55.878;2022-09-29T05:48:02;100218.25;;;5.36;91.22
60089;BME280;45961;53.574;55.878;2022-09-29T05:49:03;100226.97;;;5.41;91.25
60089;BME280;45961;53.574;55.878;2022-09-29T05:50:05;100224.03;;;5.29;91.22
60089;BME280;45961;53.574;55.878;2022-09-29T05:51:07;100220.69;;;5.32;91.09
60089;BME280;45961;53.574;55.878;2022-09-29T05:52:08;100217.16;;;5.28;91.17
60089;BME280;45961;53.574;55.878;2022-09-29T05:53:09;100225.47;;;5.19;91.07
60089;BME280;45961;53.574;55.878;2022-09-29T05:54:10;100217.94;;;5.26;91.20
60089;BME280;45961;53.574;55.878;2022-09-29T05:55:14;100217.03;;;5.24;91.43
60089;BME280;45961;53.574;55.878;2022-09-29T05:56:21;100217.53;;;5.40;91.62
60089;BME280;45961;53.574;55.878;2022-09-29T05:57:23;100223.41;;;5.36;91.28
60089;BME280;45961;53.574;55.878;2022-09-29T05:58:24;100222.31;;;5.28;90.99
60089;BME280;45961;53.574;55.878;2022-09-29T05:59:25;100215.56;;;5.32;91.11
60089;BME280;45961;53.574;55.878;2022-09-29T06:00:25;100219.00;;;5.32;91.22
60089;BME280;45961;53.574;55.878;2022-09-29T06:01:27;100224.00;;;5.28;91.05
60089;BME280;45961;53.574;55.878;2022-09-29T06:02:28;100219.00;;;5.32;91.27
60089;BME280;45961;53.574;55.878;2022-09-29T06:03:32;100224.38;;;5.40;91.13
60089;BME280;45961;53.574;55.878;2022-09-29T06:04:32;100221.66;;;5.35;91.20
60089;BME280;45961;53.574;55.878;2022-09-29T06:05:38;100216.91;;;5.48;91.11
60089;BME280;45961;53.574;55.878;2022-09-29T06:06:39;100212.75;;;5.53;91.09
60089;BME280;45961;53.574;55.878;2022-09-29T06:07:40;100216.03;;;5.47;91.13
60089;BME280;45961;53.574;55.878;2022-09-29T06:08:44;100225.41;;;5.47;90.96
60089;BME280;45961;53.574;55.878;2022-09-29T06:09:46;100216.34;;;5.29;90.87
60089;BME280;45961;53.574;55.878;2022-09-29T06:10:47;100209.72;;;5.37;90.85